Time;durP1;ratioP1;P1;durP2;ratioP2;P2;SDS_P1;SDS_P2;PMS_P1;PMS_P2;Temp;Humidity;BMP_temperature;BMP_pressure;BME280_temperature;BME280_humidity;BME280_pressure;Samples;Min_cycle;Max_cycle;Signal;HPM_P1;HPM_P2
2023/07/06 00:00:47;;;;;;;4.97;2.45;;;;;;;;;;5046024;28;20071;-70
2023/07/06 00:03:14;;;;;;;6.05;2.38;;;;;;;;;;5045802;28;20044;-70
2023/07/06 00:05:44;;;;;;;6.72;2.47;;;;;;;;;;5046427;28;20045;-70
2023/07/06 00:08:12;;;;;;;5.15;1.95;;;;;;;;;;5046625;28;20515;-70
2023/07/06 00:10:39;;;;;;;9.20;2.92;;;;;;;;;;5044958;28;20522;-70
2023/07/06 00:13:05;;;;;;;7.63;2.25;;;;;;;;;;5046528;28;20834;-70
2023/07/06 00:15:33;;;;;;;7.88;2.47;;;;;;;;;;5045896;28;20033;-69
2023/07/06 00:18:02;;;;;;;4.13;2.15;;;;;;;;;;5046904;28;20029;-69
2023/07/06 00:20:28;;;;;;;7.45;2.40;;;;;;;;;;5047204;28;20074;-69
2023/07/06 00:22:54;;;;;;;9.88;2.80;;;;;;;;;;5049280;28;20025;-69
2023/07/06 00:25:19;;;;;;;5.50;2.15;;;;;;;;;;5056553;28;20047;-69
2023/07/06 00:27:44;;;;;;;7.88;2.47;;;;;;;;;;5085299;28;20087;-69
2023/07/06 00:30:18;;;;;;;7.68;2.08;;;;;;;;;;5041035;28;20625;-69
2023/07/06 00:32:44;;;;;;;10.55;2.25;;;;;;;;;;5043568;28;20123;-69
2023/07/06 00:35:12;;;;;;;2.95;1.85;;;;;;;;;;5047640;28;20497;-70
2023/07/06 00:37:38;;;;;;;5.38;1.92;;;;;;;;;;5046233;28;20033;-69
2023/07/06 00:40:08;;;;;;;6.03;2.45;;;;;;;;;;5044678;28;20043;-69
2023/07/06 00:42:34;;;;;;;6.68;2.30;;;;;;;;;;5046309;28;20028;-69
2023/07/06 00:45:01;;;;;;;4.82;2.17;;;;;;;;;;5046610;28;20041;-70
2023/07/06 00:47:29;;;;;;;6.03;2.13;;;;;;;;;;5044007;28;20032;-69
2023/07/06 00:49:56;;;;;;;6.45;2.30;;;;;;;;;;5046991;28;20021;-69
2023/07/06 00:52:22;;;;;;;5.22;1.98;;;;;;;;;;5045802;28;20753;-69
2023/07/06 00:54:48;;;;;;;6.68;2.10;;;;;;;;;;5045155;28;20037;-69
2023/07/06 00:57:16;;;;;;;7.35;2.15;;;;;;;;;;5046127;28;20056;-69
2023/07/06 00:59:41;;;;;;;7.53;2.30;;;;;;;;;;5045726;28;20025;-69
2023/07/06 01:02:13;;;;;;;5.75;1.90;;;;;;;;;;5044660;28;20376;-69
2023/07/06 01:04:39;;;;;;;5.05;2.70;;;;;;;;;;5033581;28;20075;-69
2023/07/06 01:07:06;;;;;;;6.65;2.30;;;;;;;;;;5045961;28;20673;-69
2023/07/06 01:09:32;;;;;;;4.88;1.90;;;;;;;;;;5044238;28;20055;-69
2023/07/06 01:11:58;;;;;;;6.70;2.00;;;;;;;;;;5036169;28;20537;-69
2023/07/06 01:14:26;;;;;;;5.28;1.80;;;;;;;;;;5045841;28;20021;-69
2023/07/06 01:17:05;;;;;;;5.18;2.10;;;;;;;;;;5036649;28;20056;-69
2023/07/06 01:19:50;;;;;;;5.30;1.80;;;;;;;;;;5045788;28;20041;-69
2023/07/06 01:22:33;;;;;;;7.10;2.40;;;;;;;;;;5032989;28;20048;-69
2023/07/06 01:25:25;;;;;;;11.32;2.40;;;;;;;;;;5066268;28;20033;-69
2023/07/06 01:28:13;;;;;;;3.53;1.73;;;;;;;;;;5027992;28;20032;-70
2023/07/06 01:30:56;;;;;;;6.13;2.25;;;;;;;;;;5046097;28;20040;-69
2023/07/06 01:33:35;;;;;;;5.57;2.05;;;;;;;;;;5045544;28;20505;-70
2023/07/06 01:36:19;;;;;;;4.55;1.85;;;;;;;;;;5031641;28;20031;-69
2023/07/06 01:38:48;;;;;;;7.22;2.30;;;;;;;;;;5045719;28;20044;-69
2023/07/06 01:41:14;;;;;;;7.90;1.75;;;;;;;;;;5046639;28;20021;-69
2023/07/06 01:43:40;;;;;;;4.30;1.80;;;;;;;;;;5044931;28;20029;-69
2023/07/06 01:46:07;;;;;;;9.95;2.65;;;;;;;;;;5047392;28;20086;-69
2023/07/06 01:48:32;;;;;;;4.43;1.95;;;;;;;;;;5050640;28;20025;-69
2023/07/06 01:51:15;;;;;;;5.22;2.00;;;;;;;;;;5057792;28;20028;-69
2023/07/06 01:53:54;;;;;;;10.23;1.80;;;;;;;;;;5043622;28;20032;-69
2023/07/06 01:56:28;;;;;;;6.15;1.83;;;;;;;;;;5046441;28;20031;-69
2023/07/06 01:59:01;;;;;;;3.78;1.85;;;;;;;;;;5047012;28;20215;-69
2023/07/06 02:01:34;;;;;;;5.82;2.08;;;;;;;;;;5049314;28;20035;-69
2023/07/06 02:04:01;;;;;;;7.13;2.22;;;;;;;;;;5048824;28;20601;-70
2023/07/06 02:06:26;;;;;;;4.40;1.90;;;;;;;;;;5049510;28;20072;-70
2023/07/06 02:08:51;;;;;;;8.10;2.10;;;;;;;;;;5050071;28;20044;-70
2023/07/06 02:11:24;;;;;;;5.82;2.00;;;;;;;;;;5049195;28;20013;-70
2023/07/06 02:13:50;;;;;;;4.80;1.75;;;;;;;;;;5048247;28;20052;-70
2023/07/06 02:16:15;;;;;;;4.72;1.90;;;;;;;;;;5040740;28;20029;-70
2023/07/06 02:18:42;;;;;;;6.43;2.00;;;;;;;;;;5044929;28;20035;-70
2023/07/06 02:21:08;;;;;;;4.50;1.80;;;;;;;;;;5037262;28;20037;-70
2023/07/06 02:23:33;;;;;;;2.65;1.98;;;;;;;;;;5037462;28;20032;-70
2023/07/06 02:25:59;;;;;;;6.03;2.20;;;;;;;;;;5031021;28;20045;-70
2023/07/06 02:28:25;;;;;;;7.00;2.25;;;;;;;;;;5043493;28;20037;-70
2023/07/06 02:30:54;;;;;;;6.32;2.10;;;;;;;;;;5047855;28;20106;-71
2023/07/06 02:33:21;;;;;;;6.93;2.17;;;;;;;;;;5047237;28;20029;-70
2023/07/06 02:35:46;;;;;;;10.82;2.58;;;;;;;;;;5049239;28;20037;-70
2023/07/06 02:38:16;;;;;;;7.68;2.20;;;;;;;;;;5047442;28;20032;-70
2023/07/06 02:40:42;;;;;;;7.10;1.98;;;;;;;;;;5049105;28;20029;-70
2023/07/06 02:43:07;;;;;;;6.03;1.92;;;;;;;;;;5049062;28;20037;-71
2023/07/06 02:45:33;;;;;;;6.10;2.28;;;;;;;;;;5048829;28;20036;-70
2023/07/06 02:47:59;;;;;;;5.68;2.20;;;;;;;;;;5049052;28;20033;-70
2023/07/06 02:50:24;;;;;;;9.15;2.40;;;;;;;;;;5048336;28;20035;-70
2023/07/06 02:52:50;;;;;;;4.88;1.90;;;;;;;;;;5049127;28;20025;-70
2023/07/06 02:55:16;;;;;;;10.93;2.05;;;;;;;;;;5034946;28;20052;-70
2023/07/06 02:57:41;;;;;;;6.57;2.10;;;;;;;;;;5048577;28;20041;-70
2023/07/06 03:00:16;;;;;;;5.82;2.13;;;;;;;;;;5048320;28;20032;-70
2023/07/06 03:02:45;;;;;;;9.15;2.45;;;;;;;;;;5048969;28;20036;-71
2023/07/06 03:05:11;;;;;;;7.55;2.10;;;;;;;;;;5048849;28;20134;-70
2023/07/06 03:07:38;;;;;;;7.20;1.73;;;;;;;;;;5048372;28;20049;-70
2023/07/06 03:10:05;;;;;;;7.60;2.40;;;;;;;;;;5046898;28;20036;-71
2023/07/06 03:12:36;;;;;;;6.63;2.15;;;;;;;;;;5041842;28;20086;-70
2023/07/06 03:15:07;;;;;;;7.97;2.17;;;;;;;;;;5055320;28;20088;-70
2023/07/06 03:17:32;;;;;;;7.97;2.58;;;;;;;;;;5051906;28;20112;-70
2023/07/06 03:19:58;;;;;;;7.50;2.83;;;;;;;;;;5047100;28;20060;-70
2023/07/06 03:22:23;;;;;;;9.23;3.05;;;;;;;;;;5047564;28;20120;-70
2023/07/06 03:24:48;;;;;;;9.27;3.60;;;;;;;;;;5047497;28;20065;-70
2023/07/06 03:27:14;;;;;;;6.43;3.05;;;;;;;;;;5047952;28;20025;-70
2023/07/06 03:29:40;;;;;;;12.38;3.80;;;;;;;;;;5080134;28;20017;-70
2023/07/06 03:32:06;;;;;;;14.35;3.22;;;;;;;;;;5047077;28;20021;-70
2023/07/06 03:34:32;;;;;;;10.70;3.63;;;;;;;;;;5047470;28;20615;-70
2023/07/06 03:36:58;;;;;;;9.27;3.40;;;;;;;;;;5048054;28;20489;-70
2023/07/06 03:39:25;;;;;;;10.88;3.53;;;;;;;;;;5046323;28;20518;-70
2023/07/06 03:41:50;;;;;;;9.70;3.63;;;;;;;;;;5047475;28;20022;-70
2023/07/06 03:44:16;;;;;;;8.10;2.95;;;;;;;;;;5048320;28;20074;-70
2023/07/06 03:46:41;;;;;;;9.80;3.28;;;;;;;;;;5047689;28;20091;-70
2023/07/06 03:49:09;;;;;;;9.60;3.35;;;;;;;;;;5045925;28;20033;-71
2023/07/06 03:51:35;;;;;;;7.97;2.80;;;;;;;;;;5047616;28;20505;-71
2023/07/06 03:54:05;;;;;;;6.35;2.60;;;;;;;;;;5047458;28;20036;-70
2023/07/06 03:56:31;;;;;;;6.50;2.67;;;;;;;;;;5079375;28;20100;-70
2023/07/06 03:58:57;;;;;;;7.50;2.53;;;;;;;;;;5048147;28;20107;-70
2023/07/06 04:01:24;;;;;;;5.65;2.53;;;;;;;;;;5046980;28;20037;-70
2023/07/06 04:03:52;;;;;;;5.20;2.63;;;;;;;;;;5047037;28;20037;-70
2023/07/06 04:06:18;;;;;;;9.95;3.42;;;;;;;;;;5047031;28;20041;-70
2023/07/06 04:08:43;;;;;;;3.58;2.22;;;;;;;;;;5047041;28;20094;-70
2023/07/06 04:11:09;;;;;;;7.18;2.28;;;;;;;;;;5042965;28;20009;-70
2023/07/06 04:13:34;;;;;;;7.40;2.40;;;;;;;;;;5045817;28;20573;-71
2023/07/06 04:15:59;;;;;;;5.82;2.70;;;;;;;;;;5040080;28;20041;-70
2023/07/06 04:18:25;;;;;;;8.32;2.50;;;;;;;;;;5046473;28;20041;-70
2023/07/06 04:20:52;;;;;;;7.15;1.88;;;;;;;;;;5045230;28;20034;-70
2023/07/06 04:23:17;;;;;;;8.07;1.90;;;;;;;;;;5046842;28;20028;-70
2023/07/06 04:25:43;;;;;;;4.85;2.00;;;;;;;;;;5047366;28;20091;-71
2023/07/06 04:28:11;;;;;;;10.27;2.33;;;;;;;;;;5046878;28;20062;-70
2023/07/06 04:30:42;;;;;;;7.03;2.20;;;;;;;;;;5046936;28;20035;-70
2023/07/06 04:33:13;;;;;;;2.88;1.67;;;;;;;;;;5047537;28;20029;-70
2023/07/06 04:35:38;;;;;;;7.10;1.95;;;;;;;;;;5047559;28;20025;-70
2023/07/06 04:38:04;;;;;;;6.15;2.20;;;;;;;;;;5049857;28;20055;-70
2023/07/06 04:40:29;;;;;;;6.50;2.45;;;;;;;;;;5055308;28;20033;-70
2023/07/06 04:42:56;;;;;;;6.82;2.05;;;;;;;;;;5058070;28;20029;-71
2023/07/06 04:45:24;;;;;;;4.38;2.28;;;;;;;;;;5048525;28;20029;-70
2023/07/06 04:47:51;;;;;;;8.38;2.00;;;;;;;;;;5047221;28;20055;-71
2023/07/06 04:50:22;;;;;;;6.20;1.85;;;;;;;;;;5078969;28;20179;-70
2023/07/06 04:52:48;;;;;;;6.97;2.42;;;;;;;;;;5045831;28;20049;-70
2023/07/06 04:55:18;;;;;;;7.43;2.30;;;;;;;;;;5046033;28;20037;-70
2023/07/06 04:57:43;;;;;;;8.30;2.85;;;;;;;;;;5033803;28;20534;-71
2023/07/06 05:00:18;;;;;;;5.97;2.03;;;;;;;;;;5046488;28;20037;-71
2023/07/06 05:02:45;;;;;;;11.82;2.58;;;;;;;;;;5046294;28;20036;-70
2023/07/06 05:05:12;;;;;;;5.88;2.53;;;;;;;;;;5046179;28;20066;-70
2023/07/06 05:07:41;;;;;;;6.50;2.20;;;;;;;;;;5046338;28;20029;-70
2023/07/06 05:10:08;;;;;;;8.57;2.42;;;;;;;;;;5044318;28;20033;-70
2023/07/06 05:12:33;;;;;;;6.65;2.47;;;;;;;;;;5039478;28;20031;-71
2023/07/06 05:14:58;;;;;;;9.00;2.40;;;;;;;;;;5046535;28;20036;-71
2023/07/06 05:17:24;;;;;;;5.47;2.25;;;;;;;;;;5039413;28;20686;-71
2023/07/06 05:19:50;;;;;;;6.90;1.98;;;;;;;;;;5046804;28;20033;-71
2023/07/06 05:22:18;;;;;;;6.93;2.72;;;;;;;;;;5043917;28;20140;-70
2023/07/06 05:24:44;;;;;;;5.68;2.33;;;;;;;;;;5044880;28;20222;-70
2023/07/06 05:27:09;;;;;;;9.45;2.53;;;;;;;;;;5045132;28;20112;-71
2023/07/06 05:29:35;;;;;;;8.35;2.38;;;;;;;;;;5045808;28;20112;-70
2023/07/06 05:32:00;;;;;;;7.32;2.38;;;;;;;;;;5046326;28;20029;-70
2023/07/06 05:34:25;;;;;;;12.38;2.80;;;;;;;;;;5045432;28;20121;-71
2023/07/06 05:36:51;;;;;;;8.75;2.67;;;;;;;;;;5045451;28;20176;-70
2023/07/06 05:39:16;;;;;;;5.93;2.45;;;;;;;;;;5046187;28;20052;-70
2023/07/06 05:41:43;;;;;;;10.80;2.50;;;;;;;;;;5043334;28;20061;-70
2023/07/06 05:44:08;;;;;;;9.43;2.70;;;;;;;;;;5030826;28;20021;-71
2023/07/06 05:46:34;;;;;;;12.48;3.08;;;;;;;;;;5044725;28;20562;-71
2023/07/06 05:48:59;;;;;;;9.32;3.35;;;;;;;;;;5045175;28;20032;-70
2023/07/06 05:51:25;;;;;;;8.10;2.47;;;;;;;;;;5045930;28;20037;-70
2023/07/06 05:53:50;;;;;;;11.63;3.00;;;;;;;;;;5045892;28;20409;-70
2023/07/06 05:56:18;;;;;;;10.40;2.97;;;;;;;;;;5046647;28;20055;-70
2023/07/06 05:58:44;;;;;;;6.68;2.50;;;;;;;;;;5045827;28;20053;-71
2023/07/06 06:01:10;;;;;;;7.70;2.60;;;;;;;;;;5045166;28;20025;-70
2023/07/06 06:03:35;;;;;;;10.63;2.70;;;;;;;;;;5046468;28;20056;-70
2023/07/06 06:06:01;;;;;;;7.60;3.03;;;;;;;;;;5055320;28;20064;-70
2023/07/06 06:08:26;;;;;;;9.02;3.00;;;;;;;;;;5047718;28;20042;-70
2023/07/06 06:10:52;;;;;;;9.07;2.95;;;;;;;;;;5046014;28;20070;-70
2023/07/06 06:13:18;;;;;;;13.32;6.32;;;;;;;;;;5043824;28;20061;-70
2023/07/06 06:15:43;;;;;;;5.10;2.38;;;;;;;;;;5042123;28;20088;-70
2023/07/06 06:18:09;;;;;;;8.98;3.10;;;;;;;;;;5038098;28;20025;-70
2023/07/06 06:20:37;;;;;;;7.35;3.13;;;;;;;;;;5040371;28;20029;-70
2023/07/06 06:23:02;;;;;;;7.60;3.70;;;;;;;;;;5044070;28;20017;-70
2023/07/06 06:25:28;;;;;;;9.65;3.30;;;;;;;;;;5045286;28;20087;-70
2023/07/06 06:27:53;;;;;;;9.40;3.67;;;;;;;;;;5045018;28;20079;-70
2023/07/06 06:30:19;;;;;;;7.47;3.38;;;;;;;;;;5044055;28;20071;-70
2023/07/06 06:32:44;;;;;;;6.55;2.85;;;;;;;;;;5043314;28;20040;-70
2023/07/06 06:35:28;;;;;;;11.27;3.90;;;;;;;;;;5044232;28;20537;-70
2023/07/06 06:37:54;;;;;;;10.52;3.75;;;;;;;;;;5044971;28;20628;-71
2023/07/06 06:40:21;;;;;;;9.82;3.13;;;;;;;;;;5044189;28;20356;-71
2023/07/06 06:42:48;;;;;;;12.60;3.50;;;;;;;;;;5043517;28;20112;-70
2023/07/06 06:45:14;;;;;;;6.47;3.00;;;;;;;;;;5041763;28;20171;-70
2023/07/06 06:47:40;;;;;;;6.72;3.00;;;;;;;;;;5040948;28;20111;-71
2023/07/06 06:50:08;;;;;;;5.43;2.72;;;;;;;;;;5024396;28;20138;-71
2023/07/06 06:52:34;;;;;;;6.45;2.85;;;;;;;;;;5046136;28;20166;-71
2023/07/06 06:54:59;;;;;;;9.32;2.70;;;;;;;;;;5047013;28;20111;-70
2023/07/06 06:57:25;;;;;;;5.43;2.60;;;;;;;;;;5047700;28;20163;-71
2023/07/06 06:59:50;;;;;;;5.40;2.80;;;;;;;;;;5045125;28;20099;-71
2023/07/06 07:02:16;;;;;;;10.43;2.53;;;;;;;;;;5039690;28;20037;-71
2023/07/06 07:04:41;;;;;;;10.00;2.58;;;;;;;;;;5048464;28;20067;-71
2023/07/06 07:07:06;;;;;;;6.22;2.70;;;;;;;;;;5048933;28;20493;-71
2023/07/06 07:09:32;;;;;;;14.23;2.40;;;;;;;;;;5046202;28;20021;-70
2023/07/06 07:11:59;;;;;;;11.77;2.97;;;;;;;;;;5034784;28;20029;-70
2023/07/06 07:14:24;;;;;;;6.20;2.53;;;;;;;;;;5047441;28;20056;-70
2023/07/06 07:16:50;;;;;;;7.63;2.75;;;;;;;;;;5079899;28;20469;-71
2023/07/06 07:19:16;;;;;;;8.23;2.60;;;;;;;;;;5048309;28;20094;-71
2023/07/06 07:21:41;;;;;;;10.00;2.95;;;;;;;;;;5048437;28;20033;-71
2023/07/06 07:24:08;;;;;;;10.13;3.05;;;;;;;;;;5048621;28;20013;-70
2023/07/06 07:26:34;;;;;;;6.35;2.25;;;;;;;;;;5048695;28;20020;-71
2023/07/06 07:28:59;;;;;;;10.50;3.13;;;;;;;;;;5053457;28;20037;-70
2023/07/06 07:31:26;;;;;;;8.50;2.70;;;;;;;;;;5092133;28;20033;-71
2023/07/06 07:33:52;;;;;;;7.53;2.67;;;;;;;;;;5057092;28;20068;-70
2023/07/06 07:36:19;;;;;;;11.07;3.00;;;;;;;;;;5047780;28;20103;-71
2023/07/06 07:38:49;;;;;;;8.55;3.00;;;;;;;;;;5047403;28;20190;-71
2023/07/06 07:41:18;;;;;;;13.73;3.10;;;;;;;;;;5048158;28;20856;-71
2023/07/06 07:43:46;;;;;;;11.43;3.53;;;;;;;;;;5047644;28;20040;-71
2023/07/06 07:46:12;;;;;;;10.05;3.00;;;;;;;;;;5042082;28;20112;-71
2023/07/06 07:48:44;;;;;;;11.93;3.35;;;;;;;;;;5038134;28;20024;-71
2023/07/06 07:51:09;;;;;;;10.68;3.60;;;;;;;;;;5047689;28;20013;-71
2023/07/06 07:53:37;;;;;;;8.52;3.33;;;;;;;;;;5048174;28;20392;-71
2023/07/06 07:56:06;;;;;;;12.90;3.03;;;;;;;;;;5046583;28;20497;-71
2023/07/06 07:58:35;;;;;;;6.43;4.35;;;;;;;;;;5047178;28;20074;-70
2023/07/06 08:01:03;;;;;;;9.20;3.40;;;;;;;;;;5046806;28;20411;-70
2023/07/06 08:03:29;;;;;;;5.40;2.70;;;;;;;;;;5045325;28;20032;-71
2023/07/06 08:05:56;;;;;;;11.77;3.05;;;;;;;;;;5045836;28;20045;-70
2023/07/06 08:08:25;;;;;;;10.73;3.20;;;;;;;;;;5047765;28;20028;-71
2023/07/06 08:10:53;;;;;;;5.95;2.95;;;;;;;;;;5047818;28;20033;-70
2023/07/06 08:13:20;;;;;;;8.65;3.53;;;;;;;;;;5048068;28;20037;-71
2023/07/06 08:15:46;;;;;;;8.98;3.45;;;;;;;;;;5043614;28;20029;-71
2023/07/06 08:18:12;;;;;;;6.50;3.00;;;;;;;;;;5044220;28;20028;-70
2023/07/06 08:20:38;;;;;;;9.85;3.85;;;;;;;;;;5047071;28;20036;-71
2023/07/06 08:23:10;;;;;;;9.88;3.92;;;;;;;;;;5046302;28;20045;-70
2023/07/06 08:25:40;;;;;;;12.80;4.45;;;;;;;;;;5046666;28;20041;-71
2023/07/06 08:28:10;;;;;;;6.00;3.25;;;;;;;;;;5045396;28;20040;-71
2023/07/06 08:30:42;;;;;;;9.15;3.03;;;;;;;;;;5046946;28;20041;-71
2023/07/06 08:33:11;;;;;;;6.88;3.30;;;;;;;;;;5033085;28;20851;-71
2023/07/06 08:35:42;;;;;;;9.02;3.60;;;;;;;;;;5034015;28;20538;-71
2023/07/06 08:38:07;;;;;;;7.57;3.22;;;;;;;;;;5032842;28;20052;-71
2023/07/06 08:40:34;;;;;;;9.10;2.63;;;;;;;;;;5044325;28;20041;-71
2023/07/06 08:43:02;;;;;;;7.15;3.13;;;;;;;;;;5037695;28;20136;-71
2023/07/06 08:45:38;;;;;;;8.60;2.70;;;;;;;;;;5036167;28;20067;-71
2023/07/06 08:48:06;;;;;;;8.05;2.83;;;;;;;;;;5034001;28;20032;-71
2023/07/06 08:50:33;;;;;;;8.23;3.70;;;;;;;;;;5047930;28;20027;-71
2023/07/06 08:53:00;;;;;;;5.93;2.30;;;;;;;;;;5038634;28;20034;-71
2023/07/06 08:55:26;;;;;;;4.93;2.95;;;;;;;;;;5050605;28;20546;-71
2023/07/06 08:57:53;;;;;;;7.25;2.40;;;;;;;;;;5052958;28;20044;-71
2023/07/06 09:00:25;;;;;;;6.22;2.58;;;;;;;;;;5045972;28;20421;-71
2023/07/06 09:02:54;;;;;;;6.50;2.33;;;;;;;;;;5042255;28;20021;-71
2023/07/06 09:05:20;;;;;;;5.75;2.60;;;;;;;;;;5044842;28;20052;-71
2023/07/06 09:07:46;;;;;;;6.07;2.65;;;;;;;;;;5045830;28;20047;-71
2023/07/06 09:10:17;;;;;;;5.47;2.30;;;;;;;;;;5041113;28;20041;-71
2023/07/06 09:12:43;;;;;;;5.03;2.17;;;;;;;;;;5046000;28;20072;-71
2023/07/06 09:15:09;;;;;;;5.05;2.13;;;;;;;;;;5042479;28;20973;-71
2023/07/06 09:17:45;;;;;;;6.07;1.85;;;;;;;;;;5040671;28;20087;-71
2023/07/06 09:20:13;;;;;;;8.20;2.00;;;;;;;;;;5041671;28;20048;-71
2023/07/06 09:22:41;;;;;;;4.95;1.85;;;;;;;;;;5042176;28;20039;-71
2023/07/06 09:25:17;;;;;;;8.20;2.03;;;;;;;;;;5045824;28;20069;-71
2023/07/06 09:27:46;;;;;;;7.97;2.30;;;;;;;;;;5045254;28;20043;-71
2023/07/06 09:30:25;;;;;;;5.75;2.15;;;;;;;;;;5045980;28;20025;-71
2023/07/06 09:32:54;;;;;;;5.03;2.33;;;;;;;;;;5032988;28;20458;-71
2023/07/06 09:35:22;;;;;;;4.80;1.90;;;;;;;;;;5043835;28;20049;-70
2023/07/06 09:37:48;;;;;;;4.80;1.90;;;;;;;;;;5044726;28;20039;-71
2023/07/06 09:40:14;;;;;;;3.25;1.70;;;;;;;;;;5045195;28;20037;-70
2023/07/06 09:42:41;;;;;;;2.78;1.60;;;;;;;;;;5043906;28;20040;-71
2023/07/06 09:45:26;;;;;;;4.07;1.80;;;;;;;;;;5045770;28;20027;-71
2023/07/06 09:48:03;;;;;;;4.30;2.17;;;;;;;;;;5045880;28;20033;-70
2023/07/06 09:50:39;;;;;;;5.32;1.80;;;;;;;;;;5040227;28;20041;-71
2023/07/06 09:53:11;;;;;;;5.10;2.20;;;;;;;;;;5046884;28;20053;-71
2023/07/06 09:55:36;;;;;;;2.92;1.60;;;;;;;;;;5042514;28;20041;-70
2023/07/06 09:58:02;;;;;;;4.85;2.35;;;;;;;;;;5044433;28;20041;-70
2023/07/06 10:00:39;;;;;;;5.45;1.90;;;;;;;;;;5045245;28;20044;-70
2023/07/06 10:03:10;;;;;;;3.75;1.95;;;;;;;;;;5044267;28;20036;-70
2023/07/06 10:05:57;;;;;;;5.25;2.00;;;;;;;;;;5044693;28;20057;-70
2023/07/06 10:08:38;;;;;;;6.72;2.10;;;;;;;;;;5044271;28;20037;-70
2023/07/06 10:11:17;;;;;;;3.60;1.70;;;;;;;;;;5039294;28;20029;-70
2023/07/06 10:14:11;;;;;;;5.50;1.90;;;;;;;;;;5044719;28;20060;-70
2023/07/06 10:17:02;;;;;;;;;;;;;;;;;;5033486;28;20045;-70
2023/07/06 10:19:36;;;;;;;5.25;2.40;;;;;;;;;;5034838;28;20007;-70
2023/07/06 10:22:14;;;;;;;4.88;1.92;;;;;;;;;;5053095;28;20037;-69
2023/07/06 10:24:55;;;;;;;5.22;1.73;;;;;;;;;;5042277;28;20131;-70
2023/07/06 10:27:29;;;;;;;4.10;2.00;;;;;;;;;;5043458;28;20043;-70
2023/07/06 10:30:01;;;;;;;3.40;1.98;;;;;;;;;;5080900;28;20090;-70
2023/07/06 10:32:34;;;;;;;4.88;2.00;;;;;;;;;;5048612;28;20037;-70
2023/07/06 10:35:11;;;;;;;4.57;2.13;;;;;;;;;;5046882;28;20514;-70
2023/07/06 10:37:39;;;;;;;4.82;1.98;;;;;;;;;;5066910;28;20559;-70
2023/07/06 10:40:25;;;;;;;5.05;1.70;;;;;;;;;;5040764;28;20053;-70
2023/07/06 10:43:23;;;;;;;4.50;1.70;;;;;;;;;;5039110;28;20404;-70
2023/07/06 10:45:59;;;;;;;4.70;1.50;;;;;;;;;;5023426;28;20041;-70
2023/07/06 10:48:24;;;;;;;4.05;1.77;;;;;;;;;;5046105;28;20045;-70
2023/07/06 10:51:23;;;;;;;4.47;2.00;;;;;;;;;;5048552;28;20029;-70
2023/07/06 10:54:14;;;;;;;3.00;1.80;;;;;;;;;;5027249;28;20499;-70
2023/07/06 10:56:47;;;;;;;8.65;1.92;;;;;;;;;;5024364;28;20550;-70
2023/07/06 10:59:20;;;;;;;9.48;2.15;;;;;;;;;;5044439;28;20543;-70
2023/07/06 11:01:47;;;;;;;5.40;2.17;;;;;;;;;;5046130;28;20037;-71
2023/07/06 11:04:41;;;;;;;3.38;1.67;;;;;;;;;;5047245;28;20028;-71
2023/07/06 11:07:32;;;;;;;;;;;;;;;;;;5046297;28;20807;-70
2023/07/06 11:10:42;;;;;;;4.55;1.60;;;;;;;;;;5044997;28;19920;-70
2023/07/06 11:13:09;;;;;;;4.80;1.38;;;;;;;;;;5042653;28;20060;-70
2023/07/06 11:15:48;;;;;;;4.53;1.88;;;;;;;;;;5037063;28;20041;-70
2023/07/06 11:18:29;;;;;;;3.08;1.88;;;;;;;;;;5017122;28;20042;-70
2023/07/06 11:21:21;;;;;;;3.58;1.55;;;;;;;;;;5024771;28;20794;-70
2023/07/06 11:23:57;;;;;;;4.70;1.63;;;;;;;;;;5023108;28;20132;-70
2023/07/06 11:26:23;;;;;;;4.68;1.83;;;;;;;;;;5010263;28;20042;-71
2023/07/06 11:28:49;;;;;;;1.90;1.50;;;;;;;;;;5025738;28;20419;-73
2023/07/06 11:31:37;;;;;;;4.72;1.73;;;;;;;;;;5023706;28;20044;-70
2023/07/06 11:34:29;;;;;;;2.75;1.60;;;;;;;;;;5023946;28;20042;-71
2023/07/06 11:37:06;;;;;;;3.97;1.50;;;;;;;;;;5006241;28;20076;-71
2023/07/06 11:39:40;;;;;;;4.00;1.60;;;;;;;;;;5025811;28;20038;-71
2023/07/06 11:42:52;;;;;;;3.30;1.70;;;;;;;;;;5013899;28;20025;-71
2023/07/06 11:45:53;;;;;;;3.83;1.90;;;;;;;;;;5023905;28;20076;-71
2023/07/06 11:48:40;;;;;;;5.03;1.30;;;;;;;;;;5016674;28;20041;-70
2023/07/06 11:51:06;;;;;;;2.75;1.55;;;;;;;;;;5022673;28;20032;-70
2023/07/06 11:56:32;;;;;;;3.63;1.70;;;;;;;;;;5012394;28;20038;-70
2023/07/06 11:59:04;;;;;;;4.80;1.50;;;;;;;;;;5014310;28;20039;-71
2023/07/06 12:01:33;;;;;;;3.15;1.45;;;;;;;;;;5021949;28;20132;-70
2023/07/06 12:04:02;;;;;;;4.00;1.58;;;;;;;;;;5023816;28;20036;-70
2023/07/06 12:06:27;;;;;;;2.05;1.50;;;;;;;;;;5023232;28;20045;-70
2023/07/06 12:08:54;;;;;;;3.75;2.08;;;;;;;;;;5024188;28;20048;-70
2023/07/06 12:11:23;;;;;;;5.93;1.80;;;;;;;;;;5022651;28;20052;-70
2023/07/06 12:13:52;;;;;;;3.40;1.50;;;;;;;;;;5023762;28;20034;-70
2023/07/06 12:16:20;;;;;;;3.88;1.73;;;;;;;;;;5022674;28;20087;-70
2023/07/06 12:18:52;;;;;;;2.70;1.58;;;;;;;;;;5022613;28;20454;-70
2023/07/06 12:21:27;;;;;;;2.85;1.60;;;;;;;;;;5025749;28;20029;-70
2023/07/06 12:23:52;;;;;;;3.38;1.60;;;;;;;;;;5022144;28;20402;-71
2023/07/06 12:26:18;;;;;;;1.52;1.27;;;;;;;;;;5006387;28;20033;-69
2023/07/06 12:28:47;;;;;;;3.15;1.63;;;;;;;;;;5021880;28;20021;-69
2023/07/06 12:31:15;;;;;;;2.95;1.40;;;;;;;;;;5008710;28;20585;-69
2023/07/06 12:33:42;;;;;;;2.03;1.38;;;;;;;;;;5029691;28;20041;-69
2023/07/06 12:36:11;;;;;;;2.50;1.50;;;;;;;;;;5026583;28;20433;-69
2023/07/06 12:38:38;;;;;;;5.03;1.90;;;;;;;;;;5020624;28;20075;-70
2023/07/06 12:41:18;;;;;;;3.50;1.63;;;;;;;;;;5017306;28;20032;-69
2023/07/06 12:43:43;;;;;;;3.28;1.63;;;;;;;;;;5020387;28;20156;-69
2023/07/06 12:46:09;;;;;;;3.35;1.65;;;;;;;;;;5018940;28;20196;-69
2023/07/06 12:48:41;;;;;;;3.22;1.73;;;;;;;;;;5006304;28;20200;-69
2023/07/06 12:51:10;;;;;;;3.72;1.60;;;;;;;;;;4998768;28;20083;-69
2023/07/06 12:53:37;;;;;;;3.55;1.50;;;;;;;;;;4999931;28;20602;-69
2023/07/06 12:56:10;;;;;;;3.47;1.48;;;;;;;;;;4992489;28;20056;-68
2023/07/06 12:58:37;;;;;;;4.07;1.57;;;;;;;;;;4989026;28;20041;-68
2023/07/06 13:01:09;;;;;;;3.70;1.50;;;;;;;;;;5002076;28;20091;-68
2023/07/06 13:03:51;;;;;;;4.40;1.30;;;;;;;;;;5017988;28;20052;-68
2023/07/06 13:06:20;;;;;;;2.40;1.55;;;;;;;;;;5023047;28;20683;-68
2023/07/06 13:08:46;;;;;;;4.32;1.50;;;;;;;;;;5030765;28;20037;-68
2023/07/06 13:11:15;;;;;;;3.70;1.45;;;;;;;;;;5035949;28;20029;-68
2023/07/06 13:13:43;;;;;;;1.92;1.40;;;;;;;;;;5027592;28;20606;-69
2023/07/06 13:16:13;;;;;;;2.72;1.90;;;;;;;;;;5024515;28;20045;-69
2023/07/06 13:18:39;;;;;;;2.78;1.60;;;;;;;;;;5017332;28;20045;-68
2023/07/06 13:21:12;;;;;;;2.55;1.48;;;;;;;;;;5017948;28;20046;-69
2023/07/06 13:23:37;;;;;;;2.63;1.52;;;;;;;;;;5020911;28;20075;-69
2023/07/06 13:26:02;;;;;;;1.73;1.30;;;;;;;;;;5021854;28;20061;-69
2023/07/06 13:28:27;;;;;;;2.58;1.55;;;;;;;;;;5020870;28;20541;-69
2023/07/06 13:30:53;;;;;;;2.38;1.30;;;;;;;;;;5019886;28;20510;-69
2023/07/06 13:33:19;;;;;;;2.28;1.42;;;;;;;;;;5020693;28;20091;-68
2023/07/06 13:35:46;;;;;;;3.47;1.45;;;;;;;;;;5017598;28;20090;-70
2023/07/06 13:38:13;;;;;;;4.68;1.73;;;;;;;;;;5037791;28;20186;-69
2023/07/06 13:40:40;;;;;;;2.58;1.60;;;;;;;;;;5012396;28;20077;-69
2023/07/06 13:43:14;;;;;;;3.67;1.60;;;;;;;;;;5010859;28;20037;-68
2023/07/06 13:45:40;;;;;;;3.40;1.70;;;;;;;;;;5014902;28;20041;-69
2023/07/06 13:48:07;;;;;;;2.95;1.42;;;;;;;;;;5020162;28;20521;-69
2023/07/06 13:50:33;;;;;;;5.40;1.40;;;;;;;;;;5020191;28;20095;-69
2023/07/06 13:52:59;;;;;;;2.97;1.92;;;;;;;;;;5019257;28;20033;-69
2023/07/06 13:55:31;;;;;;;3.75;1.63;;;;;;;;;;5022574;28;20136;-69
2023/07/06 13:57:56;;;;;;;3.08;1.40;;;;;;;;;;5023485;28;20033;-69
2023/07/06 14:00:23;;;;;;;2.17;1.50;;;;;;;;;;5024587;28;20046;-69
2023/07/06 14:02:48;;;;;;;2.65;1.30;;;;;;;;;;5024748;28;20045;-69
2023/07/06 14:05:16;;;;;;;2.95;1.65;;;;;;;;;;5024298;28;20611;-69
2023/07/06 14:07:42;;;;;;;4.03;2.05;;;;;;;;;;5022485;28;20034;-69
2023/07/06 14:10:09;;;;;;;2.80;1.48;;;;;;;;;;5025123;28;20313;-69
2023/07/06 14:12:34;;;;;;;3.05;1.55;;;;;;;;;;5023296;28;20067;-69
2023/07/06 14:15:00;;;;;;;1.60;1.50;;;;;;;;;;5021028;28;20419;-69
2023/07/06 14:17:25;;;;;;;2.40;1.55;;;;;;;;;;5020324;28;20120;-69
2023/07/06 14:19:51;;;;;;;2.70;1.70;;;;;;;;;;5015365;28;20026;-69
2023/07/06 14:22:17;;;;;;;3.20;1.70;;;;;;;;;;5019510;28;20962;-69
2023/07/06 14:24:44;;;;;;;2.17;1.48;;;;;;;;;;5021631;28;20042;-69
2023/07/06 14:27:11;;;;;;;4.03;1.63;;;;;;;;;;5018738;28;20041;-69
2023/07/06 14:29:38;;;;;;;5.00;1.90;;;;;;;;;;5000221;28;20670;-69
2023/07/06 14:32:05;;;;;;;3.90;1.85;;;;;;;;;;5021626;28;20160;-69
2023/07/06 14:34:31;;;;;;;3.40;1.70;;;;;;;;;;5016816;28;20045;-69
2023/07/06 14:36:56;;;;;;;3.55;1.67;;;;;;;;;;5033410;28;20144;-69
2023/07/06 14:39:21;;;;;;;2.53;1.40;;;;;;;;;;5022823;28;20063;-69
2023/07/06 14:41:47;;;;;;;3.13;1.70;;;;;;;;;;5021755;28;20486;-69
2023/07/06 14:44:12;;;;;;;5.10;1.90;;;;;;;;;;5022979;28;20031;-69
2023/07/06 14:46:37;;;;;;;3.40;1.55;;;;;;;;;;5022673;28;20120;-69
2023/07/06 14:49:03;;;;;;;3.13;1.63;;;;;;;;;;5022427;28;20075;-69
2023/07/06 14:51:32;;;;;;;2.75;1.73;;;;;;;;;;5022504;28;20136;-69
2023/07/06 14:53:58;;;;;;;4.90;1.77;;;;;;;;;;5020082;28;20041;-69
2023/07/06 14:56:23;;;;;;;3.90;1.80;;;;;;;;;;5021520;28;20964;-69
2023/07/06 14:58:49;;;;;;;4.05;1.77;;;;;;;;;;5023116;28;20041;-69